Time;durP1;ratioP1;P1;durP2;ratioP2;P2;SDS_P1;SDS_P2;PMS_P1;PMS_P2;Temp;Humidity;BMP_temperature;BMP_pressure;BME280_temperature;BME280_humidity;BME280_pressure;Samples;Min_cycle;Max_cycle;Signal;HPM_P1;HPM_P2
2023/03/25 00:01:24;;;;;;;6.93;4.90;;;9.90;99.90;;;;;;4952183;28;20230;-69
2023/03/25 00:03:52;;;;;;;7.43;5.00;;;9.90;99.90;;;;;;4954170;28;20246;-70
2023/03/25 00:06:20;;;;;;;11.90;5.00;;;10.00;99.90;;;;;;4954352;28;20649;-71
2023/03/25 00:08:50;;;;;;;8.07;4.20;;;10.00;99.90;;;;;;4953942;28;20196;-69
2023/03/25 00:11:18;;;;;;;8.23;4.53;;;10.00;99.90;;;;;;4952968;28;20211;-70
2023/03/25 00:13:44;;;;;;;5.78;3.65;;;10.00;99.90;;;;;;4953809;28;20234;-73
2023/03/25 00:16:11;;;;;;;8.95;4.97;;;10.10;99.90;;;;;;4953628;28;20292;-68
2023/03/25 00:18:38;;;;;;;6.22;3.90;;;10.10;99.90;;;;;;4960663;28;20284;-72
2023/03/25 00:21:09;;;;;;;6.88;4.50;;;10.10;99.90;;;;;;4954015;28;20212;-70
2023/03/25 00:23:37;;;;;;;7.45;3.85;;;10.10;99.90;;;;;;4945078;28;20222;-71
2023/03/25 00:26:06;;;;;;;6.22;3.70;;;10.10;99.90;;;;;;4954586;28;20294;-72
2023/03/25 00:28:35;;;;;;;11.98;4.90;;;10.10;99.90;;;;;;4953367;28;20988;-71
2023/03/25 00:31:04;;;;;;;10.40;4.20;;;10.10;99.90;;;;;;4953576;29;20714;-71
2023/03/25 00:33:32;;;;;;;8.95;4.55;;;10.10;99.90;;;;;;4954631;28;20225;-71
2023/03/25 00:35:59;;;;;;;5.20;4.00;;;10.10;99.90;;;;;;4953754;28;20199;-71
2023/03/25 00:38:32;;;;;;;7.75;4.07;;;10.10;99.90;;;;;;4954953;28;20282;-73
2023/03/25 00:41:05;;;;;;;11.70;5.13;;;10.20;99.90;;;;;;4957542;28;20281;-70
2023/03/25 00:43:35;;;;;;;8.05;3.58;;;10.30;99.90;;;;;;4954857;28;20681;-71
2023/03/25 00:46:01;;;;;;;5.22;3.40;;;10.30;99.90;;;;;;4952312;28;20241;-71
2023/03/25 00:48:29;;;;;;;8.77;3.97;;;10.30;99.90;;;;;;4956722;28;20211;-71
2023/03/25 00:50:56;;;;;;;8.38;3.85;;;10.30;99.90;;;;;;4957947;28;20294;-72
2023/03/25 00:53:25;;;;;;;6.40;3.15;;;10.20;99.90;;;;;;4961958;28;20226;-72
2023/03/25 00:55:56;;;;;;;5.20;3.75;;;10.20;99.90;;;;;;4956114;28;20200;-71
2023/03/25 00:58:24;;;;;;;6.63;3.20;;;10.30;99.90;;;;;;4963750;28;20217;-67
2023/03/25 01:00:55;;;;;;;4.30;2.65;;;10.20;99.90;;;;;;4966419;28;20250;-71
2023/03/25 01:03:22;;;;;;;6.65;2.60;;;10.30;99.90;;;;;;4962953;28;20226;-69
2023/03/25 01:05:49;;;;;;;8.23;3.45;;;10.40;99.90;;;;;;4959938;28;20204;-71
2023/03/25 01:08:18;;;;;;;7.03;2.50;;;10.30;99.90;;;;;;4956784;28;20234;-71
2023/03/25 01:10:44;;;;;;;4.85;2.90;;;10.30;99.90;;;;;;4956367;28;20219;-70
2023/03/25 01:13:11;;;;;;;7.25;3.13;;;10.30;99.90;;;;;;4957250;28;20572;-72
2023/03/25 01:15:40;;;;;;;8.35;2.90;;;10.30;99.90;;;;;;4955813;28;20241;-72
2023/03/25 01:18:08;;;;;;;3.88;2.50;;;10.30;99.90;;;;;;4956711;28;20657;-71
2023/03/25 01:20:35;;;;;;;5.32;2.83;;;10.30;99.90;;;;;;4955039;28;20219;-71
2023/03/25 01:23:02;;;;;;;2.65;1.95;;;10.30;99.90;;;;;;4958979;28;20227;-71
2023/03/25 01:25:29;;;;;;;8.40;2.47;;;10.30;99.90;;;;;;4955947;28;20274;-72
2023/03/25 01:27:56;;;;;;;6.78;2.58;;;10.30;99.90;;;;;;4957911;28;20604;-72
2023/03/25 01:30:23;;;;;;;8.93;2.80;;;10.40;99.90;;;;;;4965706;28;20386;-70
2023/03/25 01:32:50;;;;;;;8.20;3.47;;;10.30;99.90;;;;;;4950947;28;20286;-71
2023/03/25 01:35:18;;;;;;;4.95;2.70;;;10.30;99.90;;;;;;4956544;28;20290;-71
2023/03/25 01:37:45;;;;;;;5.35;2.67;;;10.30;99.90;;;;;;4963634;28;20201;-71
2023/03/25 01:40:18;;;;;;;10.48;5.22;;;10.30;99.90;;;;;;4957319;28;20247;-69
2023/03/25 01:42:45;;;;;;;10.80;2.88;;;10.30;99.90;;;;;;4962600;28;20202;-70
2023/03/25 01:45:31;;;;;;;3.15;2.10;;;10.30;99.90;;;;;;4958099;28;20657;-70
2023/03/25 01:48:10;;;;;;;5.88;2.97;;;10.30;99.90;;;;;;4956252;28;20278;-73
2023/03/25 01:50:43;;;;;;;7.00;3.05;;;10.30;99.90;;;;;;4961552;28;20242;-70
2023/03/25 01:53:13;;;;;;;3.15;2.40;;;10.30;99.90;;;;;;4958481;28;20233;-73
2023/03/25 01:55:40;;;;;;;4.45;3.83;;;10.30;99.90;;;;;;4959278;28;20226;-69
2023/03/25 01:58:11;;;;;;;7.00;3.03;;;10.30;99.90;;;;;;4957484;28;20293;-71
2023/03/25 02:00:39;;;;;;;6.45;2.80;;;10.40;99.90;;;;;;4957393;28;20224;-71
2023/03/25 02:03:08;;;;;;;5.50;2.45;;;10.30;99.90;;;;;;4946618;28;20233;-72
2023/03/25 02:05:39;;;;;;;4.72;2.42;;;10.30;99.90;;;;;;4955640;28;20207;-72
2023/03/25 02:08:09;;;;;;;5.05;2.20;;;10.30;99.90;;;;;;4954152;28;20282;-71
2023/03/25 02:10:37;;;;;;;7.65;3.28;;;10.20;99.90;;;;;;4954946;28;20203;-71
2023/03/25 02:13:06;;;;;;;4.78;2.50;;;10.20;99.90;;;;;;4955946;28;20232;-71
2023/03/25 02:15:44;;;;;;;5.63;3.03;;;10.20;99.90;;;;;;4958644;28;20204;-71
2023/03/25 02:18:26;;;;;;;3.63;2.47;;;10.20;99.90;;;;;;4954028;28;20664;-72
2023/03/25 02:21:45;;;;;;;6.88;2.90;;;10.10;99.90;;;;;;4955081;28;20677;-71
2023/03/25 02:24:53;;;;;;;4.40;2.63;;;10.20;99.90;;;;;;4955990;28;20259;-71
2023/03/25 02:27:40;;;;;;;4.15;2.40;;;10.10;99.90;;;;;;4962749;28;20206;-70
2023/03/25 02:30:34;;;;;;;8.65;2.83;;;10.10;99.90;;;;;;4959790;28;20219;-72
2023/03/25 02:33:23;;;;;;;6.15;2.17;;;10.10;99.90;;;;;;4944397;28;20238;-71
2023/03/25 02:36:40;;;;;;;4.28;2.80;;;10.10;99.90;;;;;;4955909;28;21663;-71
2023/03/25 02:39:14;;;;;;;2.88;2.42;;;10.20;99.90;;;;;;4952419;28;20247;-72
2023/03/25 02:41:48;;;;;;;4.30;2.55;;;10.20;99.90;;;;;;4947797;28;20640;-70
2023/03/25 02:44:21;;;;;;;3.60;2.38;;;10.20;99.90;;;;;;4953091;28;20270;-72
2023/03/25 02:46:52;;;;;;;5.30;2.40;;;10.20;99.90;;;;;;4957025;28;20208;-70
2023/03/25 02:49:22;;;;;;;3.75;2.38;;;10.20;99.90;;;;;;4956327;28;20214;-72
2023/03/25 02:51:55;;;;;;;2.83;2.03;;;10.20;99.90;;;;;;4950326;28;20552;-70
2023/03/25 02:54:26;;;;;;;5.82;2.25;;;10.20;99.90;;;;;;4955454;28;20237;-72
2023/03/25 02:56:56;;;;;;;8.30;3.05;;;10.20;99.90;;;;;;4948136;28;20219;-72
2023/03/25 02:59:24;;;;;;;6.20;2.38;;;10.20;99.90;;;;;;4955610;28;20231;-70
2023/03/25 03:01:57;;;;;;;4.53;2.60;;;10.20;99.90;;;;;;4961654;28;20195;-72
2023/03/25 03:04:24;;;;;;;4.50;2.38;;;10.20;99.90;;;;;;4959471;28;20278;-70
2023/03/25 03:06:53;;;;;;;7.40;2.75;;;10.10;99.90;;;;;;4958840;28;20196;-71
2023/03/25 03:09:38;;;;;;;5.55;3.00;;;10.10;99.90;;;;;;4961233;28;20204;-71
2023/03/25 03:12:16;;;;;;;5.40;3.30;;;10.10;99.90;;;;;;4958654;28;20293;-72
2023/03/25 03:15:00;;;;;;;5.50;3.72;;;10.10;99.90;;;;;;4952746;28;20318;-70
2023/03/25 03:17:38;;;;;;;9.23;3.17;;;10.00;99.90;;;;;;4954403;28;20198;-70
2023/03/25 03:20:17;;;;;;;6.38;3.17;;;10.00;99.90;;;;;;4953433;28;20611;-71
2023/03/25 03:22:51;;;;;;;8.48;3.80;;;10.00;99.90;;;;;;4953917;28;20207;-71
2023/03/25 03:25:27;;;;;;;5.90;2.67;;;10.00;99.90;;;;;;4955481;28;20205;-72
2023/03/25 03:27:58;;;;;;;4.03;2.80;;;10.00;99.90;;;;;;4952253;28;20199;-71
2023/03/25 03:30:31;;;;;;;7.32;3.55;;;9.90;99.90;;;;;;4968448;28;20214;-71
2023/03/25 03:33:08;;;;;;;7.10;3.53;;;9.90;99.90;;;;;;4953763;28;20230;-69
2023/03/25 03:35:40;;;;;;;5.13;2.30;;;10.10;99.90;;;;;;4950869;28;20650;-73
2023/03/25 03:38:10;;;;;;;5.25;2.83;;;10.00;99.90;;;;;;4953581;28;20297;-71
2023/03/25 03:40:41;;;;;;;3.97;2.30;;;9.90;99.90;;;;;;4954089;28;20671;-70
2023/03/25 03:43:13;;;;;;;5.13;2.83;;;9.90;99.90;;;;;;4954689;28;20223;-69
2023/03/25 03:45:45;;;;;;;6.32;2.78;;;9.90;99.90;;;;;;4961149;28;20234;-71
2023/03/25 03:48:17;;;;;;;3.85;2.80;;;10.00;99.90;;;;;;4957036;28;20645;-72
2023/03/25 03:50:49;;;;;;;7.28;2.85;;;9.90;99.90;;;;;;4962108;28;20202;-73
2023/03/25 03:53:21;;;;;;;5.88;4.30;;;10.00;99.90;;;;;;4962861;28;20228;-72
2023/03/25 03:55:52;;;;;;;5.55;4.75;;;10.00;99.90;;;;;;4959195;28;20200;-70
2023/03/25 03:58:27;;;;;;;6.53;3.20;;;9.90;99.90;;;;;;4960102;28;20592;-70
2023/03/25 04:01:01;;;;;;;4.78;3.22;;;9.90;99.90;;;;;;4963408;28;20210;-72
2023/03/25 04:03:33;;;;;;;3.42;2.63;;;9.90;99.90;;;;;;4959291;28;20227;-72
2023/03/25 04:06:07;;;;;;;8.68;3.55;;;9.90;99.90;;;;;;4956778;28;20207;-72
2023/03/25 04:08:41;;;;;;;8.02;3.38;;;9.90;99.90;;;;;;4953545;28;20210;-72
2023/03/25 04:11:11;;;;;;;6.80;3.35;;;9.90;99.90;;;;;;4957026;28;20566;-70
2023/03/25 04:13:42;;;;;;;6.65;3.30;;;9.90;99.90;;;;;;4954255;28;20237;-70
2023/03/25 04:16:10;;;;;;;4.80;2.83;;;9.80;99.90;;;;;;4951724;28;20298;-71
2023/03/25 04:18:38;;;;;;;7.50;3.58;;;9.80;99.90;;;;;;4954153;28;20200;-70
2023/03/25 04:21:06;;;;;;;7.55;3.60;;;9.80;99.90;;;;;;4959379;28;20274;-71
2023/03/25 04:23:33;;;;;;;8.10;3.95;;;9.80;99.90;;;;;;4953171;28;20228;-70
2023/03/25 04:26:01;;;;;;;7.70;4.00;;;9.70;99.90;;;;;;4954003;28;20205;-71
2023/03/25 04:28:30;;;;;;;6.90;3.50;;;9.70;99.90;;;;;;4953667;28;20231;-70
2023/03/25 04:30:59;;;;;;;10.00;4.38;;;9.70;99.90;;;;;;4958112;28;20288;-70
2023/03/25 04:33:28;;;;;;;9.63;3.75;;;9.70;99.90;;;;;;4961512;28;20312;-70
2023/03/25 04:35:55;;;;;;;9.45;3.95;;;9.70;99.90;;;;;;4963731;28;20791;-71
2023/03/25 04:38:22;;;;;;;5.47;3.95;;;9.70;99.90;;;;;;4957577;28;20203;-70
2023/03/25 04:40:49;;;;;;;8.50;4.35;;;9.60;99.90;;;;;;4953820;28;20222;-71
2023/03/25 04:43:17;;;;;;;8.30;4.05;;;9.60;99.90;;;;;;4957452;28;20757;-70
2023/03/25 04:45:52;;;;;;;7.88;3.60;;;9.50;99.90;;;;;;4957660;28;20282;-71
2023/03/25 04:48:24;;;;;;;9.55;4.47;;;9.50;99.90;;;;;;4955946;28;20210;-71
2023/03/25 04:50:51;;;;;;;8.25;3.78;;;9.50;99.90;;;;;;4955137;28;20532;-68
2023/03/25 04:53:18;;;;;;;11.00;4.45;;;9.50;99.90;;;;;;4956771;28;20246;-69
2023/03/25 04:55:48;;;;;;;10.45;4.05;;;9.50;99.90;;;;;;4957745;28;20286;-71
2023/03/25 04:58:15;;;;;;;8.60;3.95;;;9.50;99.90;;;;;;4957130;28;20213;-71
2023/03/25 05:00:46;;;;;;;9.20;3.75;;;9.50;99.90;;;;;;4958195;28;20223;-69
2023/03/25 05:03:14;;;;;;;10.00;5.57;;;9.50;99.90;;;;;;4956716;28;20227;-72
2023/03/25 05:05:42;;;;;;;10.05;4.00;;;9.50;99.90;;;;;;4957267;28;20211;-71
2023/03/25 05:08:10;;;;;;;9.02;4.00;;;9.40;99.90;;;;;;4957682;28;20293;-71
2023/03/25 05:10:37;;;;;;;11.68;4.20;;;9.50;99.90;;;;;;4963537;28;20301;-71
2023/03/25 05:13:07;;;;;;;8.02;4.18;;;9.40;99.90;;;;;;4959440;28;20227;-70
2023/03/25 05:15:38;;;;;;;7.28;3.97;;;9.50;99.90;;;;;;4962119;28;20236;-70
2023/03/25 05:18:08;;;;;;;8.95;3.30;;;9.50;99.90;;;;;;4957324;28;20294;-71
2023/03/25 05:20:36;;;;;;;6.15;3.83;;;9.50;99.90;;;;;;4962946;28;20262;-70
2023/03/25 05:23:03;;;;;;;10.18;3.35;;;9.50;99.90;;;;;;4964395;28;20621;-70
2023/03/25 05:25:33;;;;;;;6.70;3.40;;;9.50;99.90;;;;;;4961347;28;20285;-71
2023/03/25 05:28:01;;;;;;;7.72;3.58;;;9.60;99.90;;;;;;4956264;28;20202;-72
2023/03/25 05:30:31;;;;;;;8.63;4.45;;;9.60;99.90;;;;;;4958785;28;20273;-70
2023/03/25 05:32:58;;;;;;;9.30;4.03;;;9.60;99.90;;;;;;4968037;28;20666;-69
2023/03/25 05:35:27;;;;;;;17.45;3.30;;;9.60;99.90;;;;;;4965212;28;20221;-72
2023/03/25 05:37:54;;;;;;;6.68;3.33;;;9.60;99.90;;;;;;4960211;28;20198;-71
2023/03/25 05:40:21;;;;;;;12.27;3.22;;;9.60;99.90;;;;;;4955543;28;20219;-70
2023/03/25 05:42:53;;;;;;;4.97;3.33;;;9.60;99.90;;;;;;4956085;28;20200;-71
2023/03/25 05:45:20;;;;;;;4.97;3.15;;;9.70;99.90;;;;;;4958381;28;20262;-69
2023/03/25 05:47:47;;;;;;;9.15;3.88;;;9.70;99.90;;;;;;4959653;28;20297;-71
2023/03/25 05:50:15;;;;;;;9.00;3.38;;;9.80;99.90;;;;;;4960923;28;20195;-69
2023/03/25 05:52:44;;;;;;;8.65;3.30;;;9.70;99.90;;;;;;4958353;28;20623;-70
2023/03/25 05:55:14;;;;;;;7.07;2.70;;;9.70;99.90;;;;;;4961421;28;20290;-71
2023/03/25 05:57:41;;;;;;;12.52;3.35;;;9.70;99.90;;;;;;4958123;28;20211;-69
2023/03/25 06:00:11;;;;;;;3.90;2.70;;;9.80;99.90;;;;;;4959209;28;20290;-70
2023/03/25 06:02:41;;;;;;;5.75;2.47;;;9.70;99.90;;;;;;4956269;28;20654;-70
2023/03/25 06:05:12;;;;;;;15.13;4.28;;;9.80;99.90;;;;;;4968007;28;20201;-71
2023/03/25 06:07:41;;;;;;;15.48;4.38;;;9.80;99.90;;;;;;4964834;28;20292;-70
2023/03/25 06:10:10;;;;;;;6.72;2.78;;;9.80;99.90;;;;;;4962283;28;20531;-70
2023/03/25 06:12:38;;;;;;;9.80;3.67;;;9.80;99.90;;;;;;4954420;28;20205;-73
2023/03/25 06:15:08;;;;;;;9.60;3.83;;;9.90;99.90;;;;;;4962359;28;20215;-70
2023/03/25 06:17:37;;;;;;;10.07;3.47;;;9.90;99.90;;;;;;4955781;28;20202;-69
2023/03/25 06:20:10;;;;;;;5.65;2.33;;;9.90;99.90;;;;;;4959006;28;20195;-70
2023/03/25 06:22:38;;;;;;;9.13;3.00;;;9.90;99.90;;;;;;4962458;28;20226;-67
2023/03/25 06:25:06;;;;;;;8.85;2.67;;;9.90;99.90;;;;;;4959029;28;20253;-71
2023/03/25 06:27:39;;;;;;;6.60;2.72;;;9.90;99.90;;;;;;4959936;28;20195;-70
2023/03/25 06:30:08;;;;;;;6.70;2.53;;;9.90;99.90;;;;;;4960354;28;20673;-70
2023/03/25 06:32:35;;;;;;;10.60;2.80;;;9.90;99.90;;;;;;4956534;28;20242;-70
2023/03/25 06:35:02;;;;;;;5.88;3.47;;;9.90;99.90;;;;;;4964110;28;20288;-71
2023/03/25 06:37:29;;;;;;;4.35;2.42;;;10.00;99.90;;;;;;4956867;28;20234;-71
2023/03/25 06:39:58;;;;;;;3.42;3.13;;;10.10;99.90;;;;;;4954767;28;20242;-70
2023/03/25 06:42:25;;;;;;;7.25;3.30;;;10.20;99.90;;;;;;4953504;28;21095;-71
2023/03/25 06:44:54;;;;;;;4.47;3.38;;;10.50;99.90;;;;;;4955758;28;20256;-70
2023/03/25 06:47:21;;;;;;;6.32;3.38;;;10.50;99.90;;;;;;4954671;28;20207;-69
2023/03/25 06:49:48;;;;;;;11.40;3.15;;;10.60;99.90;;;;;;4954987;28;20230;-69
2023/03/25 06:52:15;;;;;;;4.35;2.80;;;10.70;99.90;;;;;;4954505;28;20289;-69
2023/03/25 06:54:43;;;;;;;5.85;3.08;;;10.90;99.90;;;;;;4952716;28;20232;-68
2023/03/25 06:57:09;;;;;;;5.22;2.67;;;10.70;99.90;;;;;;4955111;29;20210;-69
2023/03/25 06:59:36;;;;;;;8.20;2.70;;;10.70;99.90;;;;;;4954433;28;20225;-70
2023/03/25 07:02:05;;;;;;;9.40;3.17;;;10.80;99.90;;;;;;4957470;28;20242;-73
2023/03/25 07:04:32;;;;;;;3.80;2.20;;;10.70;99.90;;;;;;4958039;28;20782;-72
2023/03/25 07:06:58;;;;;;;6.68;3.08;;;10.80;99.90;;;;;;4962213;28;20279;-72
2023/03/25 07:09:26;;;;;;;5.70;2.47;;;10.80;99.90;;;;;;4956013;28;20203;-72
2023/03/25 07:11:52;;;;;;;7.75;3.08;;;11.00;99.90;;;;;;4954561;28;20194;-73
2023/03/25 07:14:19;;;;;;;2.33;1.90;;;11.10;99.90;;;;;;4954768;28;20247;-72
2023/03/25 07:16:46;;;;;;;7.45;3.92;;;11.10;99.90;;;;;;4954369;28;20200;-73
2023/03/25 07:19:15;;;;;;;10.00;3.92;;;11.10;99.90;;;;;;4954988;28;20261;-73
2023/03/25 07:21:42;;;;;;;4.93;2.85;;;10.90;99.90;;;;;;4954230;28;20634;-70
2023/03/25 07:24:09;;;;;;;6.55;2.45;;;11.00;99.90;;;;;;4955465;28;20237;-75
2023/03/25 07:26:37;;;;;;;8.18;2.72;;;11.00;99.90;;;;;;4956693;28;20223;-74
2023/03/25 07:29:04;;;;;;;5.07;2.40;;;10.80;99.90;;;;;;4954574;28;20235;-71
2023/03/25 07:31:31;;;;;;;7.07;2.67;;;10.90;99.90;;;;;;4953657;28;20239;-73
2023/03/25 07:33:59;;;;;;;10.38;2.47;;;10.80;99.90;;;;;;4953418;28;20341;-72
2023/03/25 07:36:27;;;;;;;4.95;2.97;;;10.70;99.90;;;;;;4955169;28;20246;-71
2023/03/25 07:38:54;;;;;;;7.82;3.40;;;10.70;99.90;;;;;;4954056;28;20206;-71
2023/03/25 07:41:22;;;;;;;6.60;3.70;;;10.50;99.90;;;;;;4955460;28;20211;-73
2023/03/25 07:43:49;;;;;;;3.08;2.50;;;10.40;99.90;;;;;;4954270;28;20259;-70
2023/03/25 07:46:16;;;;;;;3.78;3.13;;;10.40;99.90;;;;;;4952291;28;20234;-73
2023/03/25 07:48:43;;;;;;;6.95;3.08;;;10.50;99.90;;;;;;4954219;28;20657;-68
2023/03/25 07:51:10;;;;;;;6.30;2.95;;;10.60;99.90;;;;;;4953009;28;20238;-73
2023/03/25 07:53:41;;;;;;;5.47;2.85;;;10.50;99.90;;;;;;4958017;28;20253;-72
2023/03/25 07:56:09;;;;;;;4.05;2.50;;;10.50;99.90;;;;;;4964836;28;20204;-70
2023/03/25 07:58:36;;;;;;;9.07;2.67;;;10.50;99.90;;;;;;4956662;28;20198;-70
2023/03/25 08:01:03;;;;;;;6.35;2.90;;;10.50;99.90;;;;;;4958701;28;20223;-71
2023/03/25 08:03:30;;;;;;;5.47;2.90;;;10.60;99.90;;;;;;4961026;28;20235;-70
2023/03/25 08:06:01;;;;;;;7.57;2.63;;;10.40;99.90;;;;;;4970226;28;20203;-70
2023/03/25 08:08:29;;;;;;;4.25;2.53;;;10.30;99.90;;;;;;4961879;28;20210;-72
2023/03/25 08:10:58;;;;;;;7.63;1.85;;;10.00;99.90;;;;;;4957283;28;20207;-72
2023/03/25 08:13:25;;;;;;;6.00;2.67;;;9.80;99.90;;;;;;4950769;28;20292;-71
2023/03/25 08:15:52;;;;;;;3.38;1.50;;;9.60;99.90;;;;;;4953431;28;20753;-70
2023/03/25 08:18:21;;;;;;;3.03;1.10;;;9.30;99.90;;;;;;4959071;29;20295;-70
2023/03/25 08:20:49;;;;;;;1.35;1.15;;;9.20;99.90;;;;;;4958765;28;20203;-72
2023/03/25 08:23:18;;;;;;;3.88;1.55;;;9.10;99.90;;;;;;4958649;28;20223;-69
2023/03/25 08:25:47;;;;;;;2.35;1.25;;;9.00;99.90;;;;;;4954906;28;20206;-70
2023/03/25 08:28:26;;;;;;;3.15;0.90;;;8.90;99.90;;;;;;4954968;28;20306;-71
2023/03/25 08:30:53;;;;;;;3.90;1.10;;;8.80;99.90;;;;;;4953207;28;20603;-71
2023/03/25 08:33:32;;;;;;;2.95;0.95;;;8.70;99.90;;;;;;4964783;28;20223;-70
2023/03/25 08:36:00;;;;;;;2.47;1.35;;;8.60;99.90;;;;;;4959819;28;20257;-70
2023/03/25 08:39:16;;;;;;;1.70;0.90;;;8.80;99.90;;;;;;4959679;28;20210;-71
2023/03/25 08:41:43;;;;;;;2.13;0.93;;;8.90;99.90;;;;;;4948006;29;20285;-67
2023/03/25 08:44:13;;;;;;;1.50;1.25;;;8.90;99.90;;;;;;4979468;28;20213;-70
2023/03/25 08:46:42;;;;;;;3.75;1.88;;;9.00;99.90;;;;;;4972622;28;20230;-68
2023/03/25 08:49:09;;;;;;;2.45;1.20;;;9.20;99.90;;;;;;4965705;28;20597;-69
2023/03/25 08:51:35;;;;;;;3.25;1.30;;;9.40;99.90;;;;;;4953774;28;20202;-70
2023/03/25 08:54:02;;;;;;;2.97;0.80;;;10.60;99.90;;;;;;4957157;28;20271;-69
2023/03/25 08:56:30;;;;;;;4.20;1.42;;;12.40;99.90;;;;;;4957141;28;20203;-70
2023/03/25 08:58:57;;;;;;;3.03;1.20;;;14.00;99.90;;;;;;4956128;28;20296;-70
2023/03/25 09:01:26;;;;;;;3.17;1.27;;;14.80;99.90;;;;;;4959310;28;20533;-71
2023/03/25 09:03:54;;;;;;;3.40;1.10;;;15.30;99.90;;;;;;4958726;28;20506;-70
2023/03/25 09:06:21;;;;;;;2.00;1.07;;;15.90;99.90;;;;;;4961931;28;20457;-72
2023/03/25 09:08:48;;;;;;;3.60;1.27;;;16.60;99.90;;;;;;4959232;28;20454;-69
2023/03/25 09:11:16;;;;;;;4.43;1.23;;;16.90;99.90;;;;;;4956439;28;20534;-70
2023/03/25 09:13:43;;;;;;;3.60;1.17;;;16.20;99.90;;;;;;4955864;28;20529;-71
2023/03/25 09:16:10;;;;;;;3.93;1.10;;;16.40;99.90;;;;;;4953698;28;20529;-72
2023/03/25 09:18:38;;;;;;;3.63;1.40;;;17.20;99.90;;;;;;4958001;28;20521;-70
2023/03/25 09:21:06;;;;;;;2.73;1.50;;;16.80;99.90;;;;;;4957905;28;20864;-70
2023/03/25 09:23:33;;;;;;;3.80;1.33;;;16.30;99.40;;;;;;4962115;28;20552;-72
2023/03/25 09:26:04;;;;;;;3.63;1.30;;;15.60;99.90;;;;;;4958779;28;20540;-71
2023/03/25 09:28:31;;;;;;;1.85;1.30;;;14.30;99.90;;;;;;4958963;28;20438;-71
2023/03/25 09:30:58;;;;;;;3.00;2.03;;;12.90;99.90;;;;;;4952241;28;20206;-73
2023/03/25 09:33:26;;;;;;;4.93;1.90;;;12.50;99.90;;;;;;4955776;28;20238;-71
2023/03/25 09:35:54;;;;;;;5.78;2.10;;;11.80;99.90;;;;;;4956984;28;20199;-70
2023/03/25 09:38:22;;;;;;;5.45;2.50;;;11.50;99.90;;;;;;4966064;28;20242;-72
2023/03/25 09:40:49;;;;;;;5.53;2.10;;;11.20;99.90;;;;;;4951848;28;20206;-71
2023/03/25 09:43:29;;;;;;;3.85;1.60;;;11.00;99.90;;;;;;4956449;28;20259;-72
2023/03/25 09:45:57;;;;;;;6.00;2.40;;;11.00;99.90;;;;;;4954594;28;20209;-72
2023/03/25 09:48:31;;;;;;;12.27;2.92;;;10.90;99.90;;;;;;4956159;28;20195;-70
2023/03/25 09:51:02;;;;;;;6.35;2.30;;;10.90;99.90;;;;;;4962434;28;20199;-72
2023/03/25 09:53:35;;;;;;;5.32;2.20;;;10.90;99.90;;;;;;4959661;28;20257;-70
2023/03/25 09:56:04;;;;;;;8.32;2.63;;;10.80;99.90;;;;;;4961972;28;20219;-71
2023/03/25 09:58:40;;;;;;;9.25;2.60;;;11.00;99.90;;;;;;4955214;28;20294;-72
2023/03/25 10:01:20;;;;;;;4.80;1.90;;;11.20;99.90;;;;;;4951150;28;20240;-72
2023/03/25 10:03:55;;;;;;;6.18;2.47;;;11.30;99.90;;;;;;4955472;28;20227;-71
2023/03/25 10:06:25;;;;;;;4.78;2.33;;;11.30;99.90;;;;;;4954634;28;20206;-71
2023/03/25 10:09:17;;;;;;;8.50;2.72;;;11.40;99.90;;;;;;4949887;29;20265;-71
2023/03/25 10:11:50;;;;;;;6.75;3.10;;;11.30;99.90;;;;;;4961265;28;20269;-73
2023/03/25 10:14:21;;;;;;;5.97;2.78;;;11.20;99.90;;;;;;4954336;29;20306;-73
2023/03/25 10:16:59;;;;;;;8.10;3.70;;;11.10;99.90;;;;;;4955783;28;20204;-70
2023/03/25 10:19:42;;;;;;;3.75;2.85;;;10.60;99.90;;;;;;4955594;28;20238;-70
2023/03/25 10:22:17;;;;;;;10.90;3.08;;;10.40;99.90;;;;;;4952942;28;20226;-70
2023/03/25 10:24:49;;;;;;;10.38;3.70;;;10.20;99.90;;;;;;4954757;28;20231;-70
2023/03/25 10:27:22;;;;;;;7.57;3.40;;;10.10;99.90;;;;;;4951880;28;20234;-70
2023/03/25 10:29:53;;;;;;;8.05;3.15;;;10.20;99.90;;;;;;4954987;28;20571;-69
2023/03/25 10:32:34;;;;;;;10.13;3.67;;;10.20;99.90;;;;;;4955126;29;20285;-68
2023/03/25 10:35:05;;;;;;;8.95;4.05;;;10.20;99.90;;;;;;4949379;29;20574;-69
2023/03/25 10:37:38;;;;;;;6.80;3.08;;;10.20;99.90;;;;;;4953777;28;20282;-69
2023/03/25 10:40:15;;;;;;;7.82;3.38;;;10.20;99.90;;;;;;4953182;28;20198;-68
2023/03/25 10:42:54;;;;;;;8.15;3.38;;;9.90;99.90;;;;;;4951632;28;20306;-70
2023/03/25 10:45:23;;;;;;;11.32;3.42;;;10.00;99.90;;;;;;4957143;28;20221;-69
2023/03/25 10:47:54;;;;;;;6.88;3.42;;;10.30;99.90;;;;;;4949696;28;20195;-68
2023/03/25 10:50:21;;;;;;;8.35;3.47;;;10.70;99.90;;;;;;4954626;28;20665;-70
2023/03/25 10:52:51;;;;;;;9.15;2.90;;;11.10;99.90;;;;;;4954507;28;20199;-70
2023/03/25 10:55:24;;;;;;;8.32;2.80;;;11.10;99.90;;;;;;4951881;28;20201;-69
2023/03/25 10:57:52;;;;;;;7.53;3.17;;;11.10;99.90;;;;;;4946016;28;20209;-69
2023/03/25 11:00:23;;;;;;;4.22;2.95;;;11.20;99.90;;;;;;4950705;28;20202;-69
2023/03/25 11:02:50;;;;;;;9.45;3.10;;;11.20;99.90;;;;;;4954069;28;20580;-70
2023/03/25 11:05:20;;;;;;;11.43;2.70;;;11.60;99.90;;;;;;4956835;28;20301;-70
2023/03/25 11:07:52;;;;;;;7.80;3.05;;;12.00;99.90;;;;;;4955921;28;20198;-70
2023/03/25 11:10:22;;;;;;;3.80;2.40;;;12.20;99.90;;;;;;4957103;28;20202;-70
2023/03/25 11:12:51;;;;;;;6.35;2.38;;;12.00;99.90;;;;;;4946617;28;20281;-69
2023/03/25 11:15:21;;;;;;;3.25;2.55;;;12.20;99.90;;;;;;4956906;28;20662;-71
2023/03/25 11:17:56;;;;;;;7.35;2.40;;;12.30;99.90;;;;;;4958712;28;20194;-68
2023/03/25 11:20:30;;;;;;;5.13;2.55;;;12.10;99.90;;;;;;4960409;28;20656;-70
2023/03/25 11:23:05;;;;;;;4.57;2.47;;;11.90;99.90;;;;;;4960173;28;20233;-70
2023/03/25 11:25:39;;;;;;;8.88;2.78;;;11.80;99.90;;;;;;4961658;28;20730;-71
2023/03/25 11:28:13;;;;;;;6.60;2.30;;;11.70;99.90;;;;;;4956048;28;20209;-70
2023/03/25 11:31:06;;;;;;;8.15;3.28;;;11.50;99.90;;;;;;4961090;28;20207;-71
2023/03/25 11:33:35;;;;;;;6.13;2.90;;;11.70;99.90;;;;;;4957237;28;20675;-71
2023/03/25 11:36:12;;;;;;;4.05;3.10;;;11.60;99.90;;;;;;4960370;28;20244;-71
2023/03/25 11:38:40;;;;;;;7.80;2.22;;;11.60;99.90;;;;;;4953846;28;20284;-70
2023/03/25 11:41:07;;;;;;;7.28;2.58;;;11.60;99.90;;;;;;4953294;28;20209;-72
2023/03/25 11:43:37;;;;;;;3.22;2.00;;;12.00;99.90;;;;;;4953443;28;20317;-72
2023/03/25 11:46:13;;;;;;;4.25;2.20;;;12.10;99.90;;;;;;4957720;28;20196;-70
2023/03/25 11:48:42;;;;;;;5.03;1.85;;;12.20;99.90;;;;;;4952804;28;20198;-72
2023/03/25 11:51:13;;;;;;;5.47;3.47;;;12.20;99.90;;;;;;4955905;28;20296;-70
2023/03/25 11:53:46;;;;;;;6.57;1.85;;;12.30;99.90;;;;;;4952073;29;20226;-71
2023/03/25 11:56:21;;;;;;;4.28;1.88;;;12.30;99.90;;;;;;4952354;28;20220;-70
2023/03/25 11:58:50;;;;;;;5.20;2.13;;;12.30;99.90;;;;;;4956767;28;20264;-73
2023/03/25 12:01:28;;;;;;;3.42;1.80;;;12.40;99.90;;;;;;4953070;28;20212;-72
2023/03/25 12:04:13;;;;;;;2.97;1.80;;;12.40;99.90;;;;;;4954453;28;20222;-71
2023/03/25 12:06:56;;;;;;;5.05;1.77;;;12.70;99.90;;;;;;4957273;28;20233;-73
2023/03/25 12:09:25;;;;;;;6.78;1.63;;;12.80;99.90;;;;;;4957493;28;20210;-72
2023/03/25 12:12:21;;;;;;;7.88;2.05;;;12.90;99.90;;;;;;4957699;28;20242;-70
2023/03/25 12:14:57;;;;;;;4.07;1.40;;;12.90;99.90;;;;;;4948102;28;20301;-73
2023/03/25 12:17:37;;;;;;;3.58;1.65;;;12.70;99.90;;;;;;4957541;28;20559;-73
2023/03/25 12:20:14;;;;;;;6.75;1.55;;;12.60;99.90;;;;;;4950946;29;20249;-72
2023/03/25 12:22:54;;;;;;;4.10;1.83;;;12.50;99.90;;;;;;4962637;28;20264;-73
2023/03/25 12:25:30;;;;;;;3.13;2.03;;;12.40;99.90;;;;;;4958476;28;20212;-72
2023/03/25 12:28:17;;;;;;;9.13;2.40;;;12.20;99.90;;;;;;4945739;28;20232;-74
2023/03/25 12:30:56;;;;;;;6.38;2.38;;;11.80;99.90;;;;;;4946711;28;20308;-72
2023/03/25 12:33:42;;;;;;;4.55;2.88;;;11.60;99.90;;;;;;4950088;28;20235;-71
2023/03/25 12:36:31;;;;;;;8.20;2.95;;;11.30;99.90;;;;;;4956023;28;20229;-70
2023/03/25 12:39:08;;;;;;;6.38;3.00;;;11.20;99.90;;;;;;4952532;28;20212;-69
2023/03/25 12:41:45;;;;;;;7.53;2.38;;;10.80;99.90;;;;;;4953371;28;20320;-70
2023/03/25 12:44:28;;;;;;;6.90;1.83;;;10.60;99.90;;;;;;4952288;28;20314;-70
2023/03/25 12:47:14;;;;;;;2.45;1.38;;;10.30;99.90;;;;;;4957732;28;20290;-69
2023/03/25 12:50:01;;;;;;;4.43;1.63;;;10.00;99.90;;;;;;4954994;28;20210;-69
2023/03/25 12:52:37;;;;;;;3.25;1.40;;;10.00;99.90;;;;;;4960987;28;20603;-70
2023/03/25 12:55:21;;;;;;;2.58;0.95;;;10.10;99.90;;;;;;4954542;28;20204;-70
2023/03/25 12:58:06;;;;;;;2.13;1.50;;;10.00;99.90;;;;;;4961787;28;20201;-70
2023/03/25 13:00:46;;;;;;;2.35;1.35;;;10.10;99.90;;;;;;4958369;28;20210;-69
2023/03/25 13:03:35;;;;;;;2.90;1.25;;;10.10;99.90;;;;;;4956664;28;20236;-69
2023/03/25 13:06:11;;;;;;;3.25;1.00;;;10.40;99.90;;;;;;4952264;28;20199;-69
2023/03/25 13:08:45;;;;;;;3.33;1.00;;;10.60;99.90;;;;;;4955290;28;20666;-70
2023/03/25 13:11:16;;;;;;;1.58;0.88;;;10.60;99.90;;;;;;4955142;28;20220;-72